createdAt,value
2018-12-06T00:01:44.330Z,4.30
2018-12-06T00:04:18.799Z,4.30
2018-12-06T00:06:53.661Z,4.30
2018-12-06T00:09:28.414Z,4.30
2018-12-06T00:12:03.108Z,4.30
2018-12-06T00:14:37.818Z,4.30
2018-12-06T00:17:12.483Z,4.30
2018-12-06T00:19:47.134Z,4.30
2018-12-06T00:22:21.747Z,4.30
2018-12-06T00:24:56.492Z,4.30
2018-12-06T00:27:31.318Z,4.30
2018-12-06T00:30:24.014Z,4.30
2018-12-06T00:32:59.223Z,4.30
2018-12-06T00:35:34.047Z,4.30
2018-12-06T00:38:08.701Z,4.30
2018-12-06T00:40:43.422Z,4.30
2018-12-06T00:43:17.896Z,4.30
2018-12-06T00:45:52.623Z,4.30
2018-12-06T00:48:27.468Z,4.30
2018-12-06T00:51:02.197Z,4.30
2018-12-06T00:53:36.838Z,4.30
2018-12-06T00:56:11.562Z,4.30
2018-12-06T00:58:46.287Z,4.40
2018-12-06T01:01:21.149Z,4.30
2018-12-06T01:03:57.753Z,4.30
2018-12-06T01:06:32.613Z,4.30
2018-12-06T01:09:07.490Z,4.40
2018-12-06T01:11:42.220Z,4.40
2018-12-06T01:14:16.741Z,4.40
2018-12-06T01:16:51.635Z,4.40
2018-12-06T01:19:26.437Z,4.40
2018-12-06T01:22:01.831Z,4.50
2018-12-06T01:24:37.277Z,4.40
2018-12-06T01:27:12.117Z,4.40
2018-12-06T01:29:46.808Z,4.40
2018-12-06T01:32:21.706Z,4.30
2018-12-06T01:34:56.491Z,4.40
2018-12-06T01:37:31.205Z,4.40
2018-12-06T01:40:06.004Z,4.40
2018-12-06T01:42:40.605Z,4.50
2018-12-06T01:45:15.385Z,4.60
2018-12-06T01:47:50.194Z,4.50
2018-12-06T01:50:25.023Z,4.50
2018-12-06T01:52:59.688Z,4.50
2018-12-06T01:55:34.371Z,4.40
2018-12-06T01:58:09.140Z,4.40
2018-12-06T02:00:43.964Z,4.40
2018-12-06T02:03:18.714Z,4.40
2018-12-06T02:05:53.193Z,4.40
2018-12-06T02:08:27.898Z,4.40
2018-12-06T02:11:02.564Z,4.40
2018-12-06T02:13:37.262Z,4.40
2018-12-06T02:16:11.924Z,4.40
2018-12-06T02:18:46.615Z,4.40
2018-12-06T02:21:21.392Z,4.40
2018-12-06T02:23:56.285Z,4.40
2018-12-06T02:26:31.101Z,4.40
2018-12-06T02:29:05.980Z,4.50
2018-12-06T02:31:40.637Z,4.50
2018-12-06T02:34:15.527Z,4.50
2018-12-06T02:36:50.245Z,4.40
2018-12-06T02:39:25.193Z,4.70
2018-12-06T02:41:59.981Z,4.80
2018-12-06T02:44:34.749Z,4.70
2018-12-06T02:47:09.275Z,4.70
2018-12-06T02:49:44.043Z,4.60
2018-12-06T02:52:18.729Z,4.60
2018-12-06T02:54:53.360Z,4.60
2018-12-06T02:57:28.480Z,4.70
2018-12-06T03:00:03.266Z,4.70
2018-12-06T03:02:38.004Z,4.70
2018-12-06T03:05:12.584Z,4.70
2018-12-06T03:07:47.284Z,4.60
2018-12-06T03:10:22.213Z,4.60
2018-12-06T03:12:56.992Z,4.50
2018-12-06T03:15:31.849Z,4.60
2018-12-06T03:18:06.503Z,4.60
2018-12-06T03:20:41.523Z,4.60
2018-12-06T03:23:16.146Z,4.60
2018-12-06T03:25:50.999Z,4.60
2018-12-06T03:28:25.570Z,4.70
2018-12-06T03:31:00.503Z,4.70
2018-12-06T03:33:35.187Z,4.70
2018-12-06T03:36:09.963Z,4.70
2018-12-06T03:38:44.555Z,4.70
2018-12-06T03:41:19.134Z,4.70
2018-12-06T03:43:54.092Z,4.80
2018-12-06T03:46:28.802Z,4.80
2018-12-06T03:49:03.701Z,4.90
2018-12-06T03:51:38.225Z,5.00
2018-12-06T03:54:13.094Z,5.00
2018-12-06T03:56:47.886Z,5.00
2018-12-06T03:59:22.648Z,5.00
2018-12-06T04:01:57.470Z,5.00
2018-12-06T04:04:32.146Z,5.00
2018-12-06T04:07:07.068Z,5.00
2018-12-06T04:09:41.595Z,5.00
2018-12-06T04:12:16.524Z,5.00
2018-12-06T04:14:51.252Z,5.00
2018-12-06T04:17:26.182Z,5.00
2018-12-06T04:20:01.097Z,5.10
2018-12-06T04:22:35.839Z,5.10
2018-12-06T04:25:10.643Z,5.20
2018-12-06T04:27:45.257Z,5.20
2018-12-06T04:30:20.045Z,5.10
2018-12-06T04:32:54.825Z,5.20
2018-12-06T04:35:29.693Z,5.30
2018-12-06T04:38:04.554Z,5.20
2018-12-06T04:40:39.266Z,5.20
2018-12-06T04:43:14.188Z,5.20
2018-12-06T04:45:48.879Z,5.20
2018-12-06T04:48:23.619Z,5.30
2018-12-06T04:50:58.391Z,5.30
2018-12-06T04:53:33.182Z,5.30
2018-12-06T04:56:07.899Z,5.30
2018-12-06T04:58:42.379Z,5.20
2018-12-06T05:01:17.122Z,5.20
2018-12-06T05:03:51.879Z,5.20
2018-12-06T05:06:26.605Z,5.20
2018-12-06T05:09:01.480Z,5.30
2018-12-06T05:11:35.969Z,5.30
2018-12-06T05:14:10.781Z,5.30
2018-12-06T05:16:46.410Z,5.30
2018-12-06T05:19:21.153Z,5.30
2018-12-06T05:21:56.093Z,5.20
2018-12-06T05:24:30.993Z,5.40
2018-12-06T05:27:05.926Z,5.40
2018-12-06T05:29:40.410Z,5.40
2018-12-06T05:32:15.252Z,5.50
2018-12-06T05:34:50.044Z,5.50
2018-12-06T05:37:24.781Z,5.50
2018-12-06T05:39:59.636Z,5.40
2018-12-06T05:42:34.485Z,5.40
2018-12-06T05:45:09.199Z,5.40
2018-12-06T05:47:43.984Z,5.50
2018-12-06T05:50:18.580Z,5.50
2018-12-06T05:52:53.346Z,5.50
2018-12-06T05:55:28.101Z,5.50
2018-12-06T05:58:02.796Z,5.50
2018-12-06T06:00:37.627Z,5.50
2018-12-06T06:03:12.442Z,5.50
2018-12-06T06:05:47.073Z,5.50
2018-12-06T06:08:21.668Z,5.50
2018-12-06T06:10:56.530Z,5.50
2018-12-06T06:13:31.169Z,5.50
2018-12-06T06:16:05.764Z,5.60
2018-12-06T06:18:40.672Z,5.50
2018-12-06T06:21:16.229Z,5.60
2018-12-06T06:23:51.187Z,5.60
2018-12-06T06:26:25.841Z,5.60
2018-12-06T06:29:00.651Z,5.60
2018-12-06T06:31:35.289Z,5.60
2018-12-06T06:34:09.894Z,5.50
2018-12-06T06:36:44.591Z,5.60
2018-12-06T06:39:19.169Z,5.60
2018-12-06T06:41:53.813Z,5.70
2018-12-06T06:44:28.636Z,5.70
2018-12-06T06:47:03.335Z,5.60
2018-12-06T06:49:37.950Z,5.80
2018-12-06T06:52:12.764Z,5.80
2018-12-06T06:54:51.419Z,5.90
2018-12-06T06:57:26.347Z,5.80
2018-12-06T07:00:00.983Z,5.80
2018-12-06T07:02:35.711Z,5.80
2018-12-06T07:05:10.474Z,5.80
2018-12-06T07:07:45.316Z,5.90
2018-12-06T07:10:20.990Z,5.90
2018-12-06T07:12:55.744Z,6.00
2018-12-06T07:15:30.547Z,6.00
2018-12-06T07:18:05.038Z,5.90
2018-12-06T07:20:39.737Z,5.90
2018-12-06T07:23:14.637Z,5.90
2018-12-06T07:25:49.292Z,5.90
2018-12-06T07:28:23.918Z,6.00
2018-12-06T07:30:58.785Z,6.00
2018-12-06T07:33:35.579Z,6.10
2018-12-06T07:36:10.455Z,6.00
2018-12-06T07:38:45.248Z,6.00
2018-12-06T07:41:19.904Z,6.00
2018-12-06T07:43:54.739Z,6.10
2018-12-06T07:46:29.496Z,6.10
2018-12-06T07:49:04.303Z,6.10
2018-12-06T07:51:39.186Z,6.10
2018-12-06T07:54:14.056Z,6.10
2018-12-06T07:56:48.842Z,6.10
2018-12-06T07:59:23.643Z,6.10
2018-12-06T08:01:58.374Z,6.10
2018-12-06T08:04:33.137Z,6.10
2018-12-06T08:07:07.807Z,6.10
2018-12-06T08:09:42.406Z,6.20
2018-12-06T08:12:17.305Z,6.20
2018-12-06T08:14:51.999Z,6.20
2018-12-06T08:17:26.629Z,6.20
2018-12-06T08:20:01.422Z,6.20
2018-12-06T08:22:35.936Z,6.20
2018-12-06T08:25:10.588Z,6.20
2018-12-06T08:27:45.210Z,6.20
2018-12-06T08:30:19.898Z,6.20
2018-12-06T08:32:54.460Z,6.20
2018-12-06T08:35:30.103Z,6.20
2018-12-06T08:38:05.011Z,6.30
2018-12-06T08:40:39.801Z,6.30
2018-12-06T08:43:14.484Z,6.30
2018-12-06T08:45:49.212Z,6.20
2018-12-06T08:48:24.084Z,6.30
2018-12-06T08:50:58.795Z,6.30
2018-12-06T08:53:33.514Z,6.30
2018-12-06T08:56:08.168Z,6.30
2018-12-06T08:58:42.737Z,6.30
2018-12-06T09:01:17.586Z,6.30
2018-12-06T09:03:52.218Z,6.40
2018-12-06T09:06:27.185Z,6.50
2018-12-06T09:09:01.950Z,6.50
2018-12-06T09:11:36.856Z,6.50
2018-12-06T09:14:11.654Z,6.50
2018-12-06T09:16:46.343Z,6.50
2018-12-06T09:19:21.179Z,6.50
2018-12-06T09:21:56.162Z,6.60
2018-12-06T09:24:30.788Z,6.60
2018-12-06T09:27:05.708Z,6.60
2018-12-06T09:29:40.396Z,6.60
2018-12-06T09:32:15.331Z,6.60
2018-12-06T09:34:49.996Z,6.60
2018-12-06T09:37:24.743Z,6.60
2018-12-06T09:39:59.430Z,6.60
2018-12-06T09:42:34.779Z,6.70
2018-12-06T09:45:09.858Z,6.70
2018-12-06T09:47:44.542Z,6.60
2018-12-06T09:50:19.174Z,6.70
2018-12-06T09:52:53.951Z,6.60
2018-12-06T09:55:28.629Z,6.70
2018-12-06T09:58:03.252Z,6.70
2018-12-06T10:00:37.899Z,6.70
2018-12-06T10:03:12.714Z,6.80
2018-12-06T10:05:47.611Z,6.80
2018-12-06T10:08:22.296Z,6.80
2018-12-06T10:10:57.103Z,6.80
2018-12-06T10:13:31.937Z,6.90
2018-12-06T10:16:07.598Z,6.80
2018-12-06T10:18:42.526Z,6.90
2018-12-06T10:21:17.384Z,6.90
2018-12-06T10:23:52.216Z,6.90
2018-12-06T10:26:26.915Z,6.90
2018-12-06T10:29:01.692Z,6.90
2018-12-06T10:31:36.540Z,6.90
2018-12-06T10:34:11.490Z,6.90
2018-12-06T10:36:45.811Z,7.00
2018-12-06T10:39:20.571Z,7.00
2018-12-06T10:41:55.582Z,7.10
2018-12-06T10:44:30.476Z,7.00
2018-12-06T10:47:05.685Z,7.00
2018-12-06T10:49:40.381Z,7.00
2018-12-06T10:52:15.040Z,7.10
2018-12-06T10:54:49.981Z,7.20
2018-12-06T10:57:24.736Z,7.20
2018-12-06T10:59:59.327Z,7.20
2018-12-06T11:02:39.540Z,7.30
2018-12-06T11:05:15.034Z,7.30
2018-12-06T11:07:49.486Z,7.50
2018-12-06T11:10:24.478Z,7.50
2018-12-06T11:12:59.114Z,7.70
2018-12-06T11:15:33.913Z,7.90
2018-12-06T11:18:08.623Z,7.90
2018-12-06T11:20:43.345Z,8.10
2018-12-06T11:23:18.058Z,8.00
2018-12-06T11:25:52.775Z,8.00
2018-12-06T11:28:27.585Z,8.00
2018-12-06T11:31:02.381Z,7.90
2018-12-06T11:33:37.117Z,7.90
2018-12-06T11:36:11.760Z,7.90
2018-12-06T11:38:46.541Z,7.90
2018-12-06T11:41:21.385Z,7.90
2018-12-06T11:43:56.231Z,7.90
2018-12-06T11:46:31.003Z,7.90
2018-12-06T11:49:05.614Z,7.80
2018-12-06T11:51:40.298Z,7.80
2018-12-06T11:54:14.910Z,7.90
2018-12-06T11:56:49.753Z,7.80
2018-12-06T11:59:24.358Z,7.80
2018-12-06T12:01:59.198Z,7.80
2018-12-06T12:04:33.669Z,7.80
2018-12-06T12:07:08.563Z,7.90
2018-12-06T12:09:43.305Z,7.90
2018-12-06T12:12:17.917Z,7.90
2018-12-06T12:14:52.561Z,7.90
2018-12-06T12:17:27.336Z,8.00
2018-12-06T12:20:02.127Z,8.10
2018-12-06T12:22:36.722Z,8.10
2018-12-06T12:25:11.562Z,8.10
2018-12-06T12:27:46.283Z,8.10
2018-12-06T12:30:21.018Z,8.10
2018-12-06T12:32:55.713Z,8.10
2018-12-06T12:35:30.465Z,8.10
2018-12-06T12:38:05.210Z,8.20
2018-12-06T12:40:39.772Z,8.20
2018-12-06T12:43:14.504Z,8.20
2018-12-06T12:45:49.144Z,8.30
2018-12-06T12:48:23.788Z,8.30
2018-12-06T12:50:58.408Z,8.30
2018-12-06T12:53:33.928Z,8.40
2018-12-06T12:56:08.829Z,8.30
2018-12-06T12:58:44.031Z,8.40
2018-12-06T13:01:18.403Z,8.50
2018-12-06T13:03:53.385Z,8.50
2018-12-06T13:06:28.742Z,8.40
2018-12-06T13:09:04.225Z,8.50
2018-12-06T13:11:38.631Z,8.60
2018-12-06T13:14:13.289Z,8.60
2018-12-06T13:16:47.845Z,8.70
2018-12-06T13:19:22.461Z,8.60
2018-12-06T13:21:57.211Z,8.50
2018-12-06T13:24:31.979Z,8.50
2018-12-06T13:27:06.553Z,8.50
2018-12-06T13:29:41.340Z,8.60
2018-12-06T13:32:16.267Z,8.60
2018-12-06T13:34:50.919Z,8.70
2018-12-06T13:37:25.536Z,8.70
2018-12-06T13:40:00.295Z,8.60
2018-12-06T13:42:35.050Z,8.60
2018-12-06T13:45:09.842Z,8.70
2018-12-06T13:47:44.412Z,8.70
2018-12-06T13:50:19.115Z,8.80
2018-12-06T13:52:53.741Z,8.70
2018-12-06T13:55:28.571Z,8.80
2018-12-06T13:58:03.192Z,8.80
2018-12-06T14:00:38.184Z,8.80
2018-12-06T14:03:13.680Z,8.70
2018-12-06T14:05:48.400Z,8.70
2018-12-06T14:08:23.338Z,8.70
2018-12-06T14:10:57.921Z,8.80
2018-12-06T14:13:32.798Z,8.70
2018-12-06T14:16:10.586Z,8.80
2018-12-06T14:18:44.120Z,8.80
2018-12-06T14:21:19.000Z,8.80
2018-12-06T14:23:53.649Z,8.90
2018-12-06T14:26:28.497Z,8.90
2018-12-06T14:29:03.265Z,8.80
2018-12-06T14:31:37.934Z,8.90
2018-12-06T14:34:12.787Z,8.90
2018-12-06T14:36:47.518Z,8.80
2018-12-06T14:39:22.352Z,8.90
2018-12-06T14:41:57.153Z,8.90
2018-12-06T14:44:31.911Z,8.80
2018-12-06T14:47:06.664Z,8.80
2018-12-06T14:49:41.285Z,8.80
2018-12-06T14:52:16.092Z,8.80
2018-12-06T14:54:50.619Z,8.80
2018-12-06T14:57:25.368Z,8.70
2018-12-06T15:00:00.065Z,8.80
2018-12-06T15:02:34.717Z,8.70
2018-12-06T15:05:09.775Z,8.70
2018-12-06T15:07:44.237Z,8.90
2018-12-06T15:10:18.840Z,8.90
2018-12-06T15:12:53.681Z,9.00
2018-12-06T15:15:28.277Z,9.00
2018-12-06T15:18:02.907Z,9.10
2018-12-06T15:20:37.453Z,9.20
2018-12-06T15:23:12.471Z,9.20
2018-12-06T15:25:47.178Z,9.10
2018-12-06T15:28:22.005Z,9.10
2018-12-06T15:30:56.577Z,9.10
2018-12-06T15:33:31.354Z,9.20
2018-12-06T15:36:06.165Z,9.20
2018-12-06T15:38:40.910Z,9.20
2018-12-06T15:41:15.638Z,9.20
2018-12-06T15:43:50.431Z,9.20
2018-12-06T15:46:25.167Z,9.20
2018-12-06T15:48:59.955Z,9.20
2018-12-06T15:51:34.670Z,9.20
2018-12-06T15:54:09.353Z,9.30
2018-12-06T15:56:43.946Z,9.30
2018-12-06T15:59:18.599Z,9.30
2018-12-06T16:01:53.307Z,9.30
2018-12-06T16:04:28.081Z,9.30
2018-12-06T16:07:02.868Z,9.40
2018-12-06T16:09:37.695Z,9.40
2018-12-06T16:12:12.434Z,9.40
2018-12-06T16:14:47.209Z,9.40
2018-12-06T16:17:21.993Z,9.40
2018-12-06T16:19:56.738Z,9.40
2018-12-06T16:22:31.670Z,9.40
2018-12-06T16:25:06.422Z,9.30
2018-12-06T16:27:40.846Z,9.30
2018-12-06T16:30:15.461Z,9.30
2018-12-06T16:32:50.447Z,9.30
2018-12-06T16:35:25.257Z,9.30
2018-12-06T16:37:59.612Z,9.30
2018-12-06T16:40:34.444Z,9.30
2018-12-06T16:43:09.376Z,9.30
2018-12-06T16:45:44.335Z,9.30
2018-12-06T16:48:19.072Z,9.40
2018-12-06T16:50:53.707Z,9.30
2018-12-06T16:53:28.556Z,9.30
2018-12-06T16:56:03.183Z,9.30
2018-12-06T16:58:38.162Z,9.30
2018-12-06T17:01:12.905Z,9.30
2018-12-06T17:03:47.541Z,9.30
2018-12-06T17:06:22.185Z,9.30
2018-12-06T17:08:56.917Z,9.30
2018-12-06T17:11:31.838Z,9.20
2018-12-06T17:14:06.597Z,9.20
2018-12-06T17:17:23.598Z,9.10
2018-12-06T17:19:58.771Z,9.10
2018-12-06T17:22:33.379Z,9.10
2018-12-06T17:25:08.263Z,9.10
2018-12-06T17:27:43.042Z,9.10
2018-12-06T17:30:18.013Z,9.10
2018-12-06T17:32:52.452Z,9.00
2018-12-06T17:35:27.041Z,9.00
2018-12-06T17:38:01.841Z,9.10
2018-12-06T17:40:36.705Z,9.20
2018-12-06T17:43:11.474Z,9.20
2018-12-06T17:45:46.153Z,9.20
2018-12-06T17:48:20.772Z,9.20
2018-12-06T17:50:55.645Z,9.30
2018-12-06T17:53:30.468Z,9.40
2018-12-06T17:56:05.298Z,9.40
2018-12-06T17:58:40.108Z,9.40
2018-12-06T18:01:14.749Z,9.30
2018-12-06T18:03:49.404Z,9.40
2018-12-06T18:06:24.210Z,9.40
2018-12-06T18:08:58.826Z,9.40
2018-12-06T18:11:33.412Z,9.40
2018-12-06T18:14:08.029Z,9.40
2018-12-06T18:16:42.966Z,9.50
2018-12-06T18:19:17.613Z,9.50
2018-12-06T18:21:52.398Z,9.50
2018-12-06T18:24:27.249Z,9.50
2018-12-06T18:27:02.045Z,9.50
2018-12-06T18:29:36.689Z,9.50
2018-12-06T18:32:11.684Z,9.50
2018-12-06T18:34:46.385Z,9.50
2018-12-06T18:37:21.008Z,9.60
2018-12-06T18:39:55.767Z,9.50
2018-12-06T18:42:30.527Z,9.50
2018-12-06T18:45:05.873Z,9.60
2018-12-06T18:47:40.949Z,9.60
2018-12-06T18:50:15.612Z,9.60
2018-12-06T18:52:50.322Z,9.60
2018-12-06T18:55:25.065Z,9.60
2018-12-06T18:57:59.670Z,9.50
2018-12-06T19:00:34.675Z,9.60
2018-12-06T19:03:09.205Z,9.60
2018-12-06T19:05:44.000Z,9.60
2018-12-06T19:08:18.755Z,9.60
2018-12-06T19:10:53.729Z,9.60
2018-12-06T19:13:28.499Z,9.70
2018-12-06T19:16:03.374Z,9.70
2018-12-06T19:18:38.256Z,9.70
2018-12-06T19:21:13.003Z,9.80
2018-12-06T19:23:47.831Z,9.90
2018-12-06T19:26:22.619Z,9.90
2018-12-06T19:28:57.420Z,9.90
2018-12-06T19:31:32.280Z,9.90
2018-12-06T19:34:06.931Z,9.80
2018-12-06T19:36:41.907Z,9.90
2018-12-06T19:39:16.623Z,9.90
2018-12-06T19:41:51.334Z,10.00
2018-12-06T19:44:26.010Z,9.90
2018-12-06T19:47:00.842Z,9.90
2018-12-06T19:49:35.565Z,9.90
2018-12-06T19:52:10.298Z,9.90
2018-12-06T19:54:45.080Z,9.90
2018-12-06T19:57:19.883Z,9.90
2018-12-06T19:59:54.698Z,9.90
2018-12-06T20:02:29.338Z,9.90
2018-12-06T20:05:05.478Z,10.00
2018-12-06T20:07:40.595Z,9.90
2018-12-06T20:10:15.478Z,10.00
2018-12-06T20:12:50.171Z,10.00
2018-12-06T20:15:24.957Z,10.00
2018-12-06T20:17:59.807Z,10.00
2018-12-06T20:20:34.339Z,10.00
2018-12-06T20:23:09.134Z,10.00
2018-12-06T20:25:43.974Z,10.10
2018-12-06T20:28:26.182Z,10.10
2018-12-06T20:30:56.415Z,10.10
2018-12-06T20:33:31.431Z,10.10
2018-12-06T20:36:06.060Z,10.20
2018-12-06T20:38:40.950Z,10.20
2018-12-06T20:41:15.519Z,10.20
2018-12-06T20:43:50.265Z,10.20
2018-12-06T20:46:25.165Z,10.20
2018-12-06T20:48:59.842Z,10.20
2018-12-06T20:51:34.945Z,10.20
2018-12-06T20:54:09.514Z,10.20
2018-12-06T20:56:44.585Z,10.30
2018-12-06T20:59:19.200Z,10.30
2018-12-06T21:01:55.048Z,10.30
2018-12-06T21:04:30.381Z,10.30
2018-12-06T21:07:05.172Z,10.40
2018-12-06T21:09:40.185Z,10.40
2018-12-06T21:12:14.547Z,10.40
2018-12-06T21:14:49.269Z,10.40
2018-12-06T21:17:24.173Z,10.30
2018-12-06T21:19:58.987Z,10.40
2018-12-06T21:22:33.674Z,10.40
2018-12-06T21:25:08.708Z,10.40
2018-12-06T21:27:43.523Z,10.40
2018-12-06T21:30:18.470Z,10.30
2018-12-06T21:32:53.226Z,10.40
2018-12-06T21:35:27.792Z,10.40
2018-12-06T21:38:02.843Z,10.40
2018-12-06T21:40:37.353Z,10.40
2018-12-06T21:43:12.130Z,10.40
2018-12-06T21:45:47.055Z,10.40
2018-12-06T21:48:21.547Z,10.40
2018-12-06T21:50:56.248Z,10.40
2018-12-06T21:53:30.939Z,10.40
2018-12-06T21:56:05.893Z,10.50
2018-12-06T21:58:41.554Z,10.50
2018-12-06T22:01:16.362Z,10.60
2018-12-06T22:06:26.049Z,10.60
2018-12-06T22:09:01.406Z,10.50
2018-12-06T22:11:36.812Z,10.60
2018-12-06T22:14:11.905Z,10.70
2018-12-06T22:16:46.507Z,10.60
2018-12-06T22:19:21.253Z,10.60
2018-12-06T22:21:56.069Z,10.60
2018-12-06T22:24:30.677Z,10.70
2018-12-06T22:27:05.542Z,10.60
2018-12-06T22:29:40.261Z,10.60
2018-12-06T22:32:15.231Z,10.70
2018-12-06T22:34:50.997Z,10.70
2018-12-06T22:37:25.750Z,10.60
2018-12-06T22:40:00.508Z,10.60
2018-12-06T22:42:35.270Z,10.60
2018-12-06T22:47:56.136Z,10.70
2018-12-06T22:50:31.482Z,10.70
2018-12-06T22:53:06.187Z,10.70
2018-12-06T22:55:40.943Z,10.70
2018-12-06T22:58:15.551Z,10.70
2018-12-06T23:00:52.199Z,10.70
2018-12-06T23:03:27.113Z,10.70
2018-12-06T23:06:01.529Z,10.80
2018-12-06T23:08:36.374Z,10.70
2018-12-06T23:11:11.280Z,10.70
2018-12-06T23:13:45.813Z,10.80
2018-12-06T23:16:20.658Z,10.90
2018-12-06T23:18:55.254Z,10.90
2018-12-06T23:21:30.023Z,10.90
2018-12-06T23:24:04.747Z,10.80
2018-12-06T23:26:39.563Z,10.80
2018-12-06T23:29:14.426Z,10.90
2018-12-06T23:31:49.172Z,10.90
2018-12-06T23:34:23.681Z,10.90
2018-12-06T23:36:58.429Z,10.90
2018-12-06T23:39:33.153Z,11.00
2018-12-06T23:42:07.899Z,11.00
2018-12-06T23:44:42.634Z,11.00
2018-12-06T23:47:17.652Z,11.00
2018-12-06T23:49:52.259Z,11.00
2018-12-06T23:55:05.050Z,11.00
2018-12-06T23:57:39.779Z,11.00
